Tuesday, November 21, 2017, 10:48 AM EST
Back to Local

KSFM, Sanford, Sanford Regional Airport

Location: Sanford, ME, United States Lat: 43.4
Local Time: 10:48 AM EST (15:48 GMT) Lon: -70.717
Time Zone: US/Eastern Elev: 242 ft

Show me the last for .
Show Coded

Time T Td Feel RH Dir Speed Gust Alt SLP Vis Weather Sky Remarks
2017-11-21 09:56 40 27 35 59 230° 7 - 30.06 30.08 10 None
2017-11-21 08:56 37 27 30 66 210° 10 - 30.07 30.09 10 None
2017-11-21 07:56 35 29 31 78 200° 5 - 30.07 30.09 10 None
2017-11-21 06:56 27 25 20 92 220° 6 - 30.08 30.09 10 6-hr Min Temp (7am): 21.9°F
6-hr Max Temp (7am): 32.0°F
2017-11-21 05:56 26 25 21 95 220° 5 - 30.07 30.09 10 None
2017-11-21 04:56 23 21 18 91 210° 3 - 30.06 30.08 10 None
2017-11-21 03:56 24 22 - 91 - Calm - 30.06 30.08 10 None
2017-11-21 02:56 30 26 - 84 - Calm - 30.06 30.07 10 None
2017-11-21 01:56 32 26 - 78 - Calm - 30.07 30.09 10 None
2017-11-21 00:56 31 25 27 78 240° 3 - 30.04 30.06 10 6-hr Min Temp (1am): 25.0°F
6-hr Max Temp (1am): 35.1°F
2017-11-20 23:56 28 24 - 84 - Calm - 30.03 30.05 10 None
2017-11-20 22:56 25 22 - 87 - Calm - 30.02 30.04 10 24-hr Min Temp (11pm): 25.0°F
24-hr Max Temp (11pm): 37.9°F
2017-11-20 21:56 30 23 26 74 Variable 3 - 30.00 30.02 10 None
2017-11-20 20:56 33 23 25 66 290° 9 - 29.98 30.00 10 None
2017-11-20 19:56 34 23 27 63 280° 9 - 29.97 29.98 10 None
2017-11-20 18:56 35 21 - 56 - Calm - 29.94 29.95 10 6-hr Min Temp (7pm): 34.0°F
6-hr Max Temp (7pm): 37.9°F
2017-11-20 17:56 34 20 29 55 250° 6 - 29.91 29.92 10 None
2017-11-20 16:56 36 19 28 49 260° 12 - 29.88 29.90 10 None
2017-11-20 15:56 37 17 28 43 270° 14 - 29.86 29.88 10 None
2017-11-20 14:56 37 16 27 41 260° 9 20 29.84 29.85 10 Peak wind: 33 mph (29 kts) from 280° at 20 min
2017-11-20 13:56 38 15 26 38 270° 21 29 29.82 29.83 10 None
2017-11-20 12:56 37 14 30 38 280° 10 - 29.82 29.83 10 6-hr Precip Total (1pm): 0.00"
6-hr Min Temp (1pm): 30.0°F
6-hr Max Temp (1pm): 37.0°F
2017-11-20 11:56 36 14 24 39 280° 20 25 29.82 29.84 10 Peak wind: 37 mph (33 kts) from 300° at 05 min
2017-11-20 10:56 35 15 21 43 280° 17 32 29.82 29.83 10 Peak wind: 34 mph (30 kts) from 270° at 44 min

Support USWX by starting your Amazon purchase here.